Newtonville, Indiana
Current Conditions -  °F | °C
As of 4:15 PM on Sunday 25 Jan 2015 (Local Time) from KHNB Reporting Station
Overcast Overcast  
Wind Chill: 38°   Ceiling: 1800
Heat Index: 41°   Visibility: 9mi
Dew Point: 37°   Wind: 5mph
Humidity: 87%   Direction: 200°SSW
Pressure: 29.63"   Gusts: NA
Location:  37.9871°N, 86.9437°W
Report Text: KHNB 252215Z AUTO 20004KT 9SM SCT009 BKN018 OVC026 05/03 A2963 RMK AO1 P0001
Loading
Personal Weather Stations






























Interactive Weather Map New forecast layout! Learn more

10-Day Weather Forecast

Advertisements
Track Severe Weather on mobile